Main page
METAR-TAF:

METAR-TAF

Airports :

RAF Shawbury

Shawbury, England

latitude: 52-48N, longitude: 002-40W, elevation: 76 m

Current weather observation

The report was made 44 minutes ago, at 10:50 UTC
Wind 4 kt from the Southwest
Temperature 8°C
Humidity 71%
Pressure 1023 hPa
Visibility 10 km or more
Few clouds at a height of 3500 ft
Scattered clouds at a height of 9000 ft
Broken clouds at a height of 11000 ft

METAR: EGOS 081050Z 22004KT 9999 FEW035 SCT090 BKN110 08/03 Q1023 NOSIG RMK BLU BLU

Time: 11:34 (11:34 UTC)

Forecast

The report was made 4 hours and 2 minutes ago, at 07:32 UTC
Forecast valid from 08 at 09 UTC to 08 at 18 UTC
Wind 5 kt from the West/Southwest
Visibility 10 km or more
Scattered clouds at a height of 3000 ft

TAF: EGOS 080732Z 0809/0818 25005KT 9999 SCT030

Weather observations and forecasts of more than 4000 airports (METAR and TAF reports).

The available stations are represented by yellow and red dots on the map.

Hover mouse over dot to see the name of the station.

Then click to see weather observations and forecasts.

To change the map : click on the green buttons with a black cross to zoom in, on the green button with a dash to zoom out, or on the green arrows for adjacent maps.


METAR-TAF: